createdAt,value
2023-04-16T00:00:59.679Z,4.60
2023-04-16T00:03:26.519Z,4.40
2023-04-16T00:05:55.786Z,4.13
2023-04-16T00:08:26.401Z,3.63
2023-04-16T00:10:53.948Z,4.65
2023-04-16T00:13:21.001Z,4.15
2023-04-16T00:15:47.659Z,4.75
2023-04-16T00:18:14.588Z,5.07
2023-04-16T00:20:41.287Z,4.95
2023-04-16T00:23:07.986Z,5.40
2023-04-16T00:25:34.721Z,4.97
2023-04-16T00:28:01.372Z,5.07
2023-04-16T00:30:28.046Z,4.40
2023-04-16T00:32:54.801Z,4.40
2023-04-16T00:35:21.628Z,4.43
2023-04-16T00:37:48.436Z,4.50
2023-04-16T00:40:15.271Z,4.45
2023-04-16T00:42:41.924Z,4.80
2023-04-16T00:45:09.574Z,4.53
2023-04-16T00:47:36.498Z,3.97
2023-04-16T00:50:04.582Z,4.10
2023-04-16T00:52:33.091Z,4.70
2023-04-16T00:54:59.955Z,3.97
2023-04-16T00:57:27.047Z,3.67
2023-04-16T00:59:54.677Z,3.92
2023-04-16T01:02:21.511Z,3.70
2023-04-16T01:04:48.267Z,4.00
2023-04-16T01:07:14.934Z,4.05
2023-04-16T01:09:41.556Z,3.78
2023-04-16T01:12:08.285Z,4.53
2023-04-16T01:14:36.381Z,3.67
2023-04-16T01:17:03.925Z,3.50
2023-04-16T01:19:36.244Z,3.83
2023-04-16T01:22:03.781Z,3.97
2023-04-16T01:24:31.108Z,3.47
2023-04-16T01:26:59.406Z,5.05
2023-04-16T01:29:26.768Z,4.85
2023-04-16T01:31:54.289Z,5.32
2023-04-16T01:34:21.112Z,5.00
2023-04-16T01:36:47.769Z,5.30
2023-04-16T01:39:16.276Z,5.00
2023-04-16T01:41:43.592Z,5.65
2023-04-16T01:44:10.417Z,4.82
2023-04-16T01:46:38.187Z,4.93
2023-04-16T01:49:06.544Z,4.70
2023-04-16T01:51:33.415Z,4.90
2023-04-16T01:54:00.297Z,4.95
2023-04-16T01:56:27.047Z,4.75
2023-04-16T01:58:53.782Z,3.80
2023-04-16T02:01:20.718Z,3.92
2023-04-16T02:03:48.247Z,3.42
2023-04-16T02:06:15.445Z,4.05
2023-04-16T02:08:42.250Z,3.70
2023-04-16T02:11:09.001Z,3.40
2023-04-16T02:13:35.653Z,2.85
2023-04-16T02:16:02.687Z,2.80
2023-04-16T02:18:29.426Z,3.13
2023-04-16T02:20:58.479Z,3.20
2023-04-16T02:23:25.282Z,3.08
2023-04-16T02:25:51.965Z,2.88
2023-04-16T02:28:18.643Z,2.80
2023-04-16T02:30:45.601Z,2.58
2023-04-16T02:33:12.925Z,3.20
2023-04-16T02:35:40.813Z,3.25
2023-04-16T02:38:08.584Z,3.22
2023-04-16T02:40:35.563Z,2.88
2023-04-16T02:43:02.290Z,2.65
2023-04-16T02:45:29.062Z,2.78
2023-04-16T02:47:55.762Z,3.22
2023-04-16T02:50:22.545Z,3.65
2023-04-16T02:52:49.264Z,3.42
2023-04-16T02:55:16.046Z,4.05
2023-04-16T02:57:42.764Z,4.63
2023-04-16T03:00:10.009Z,4.93
2023-04-16T03:02:36.879Z,5.00
2023-04-16T03:05:04.245Z,5.43
2023-04-16T03:07:30.904Z,4.90
2023-04-16T03:09:57.546Z,5.22
2023-04-16T03:12:24.282Z,5.25
2023-04-16T03:14:52.666Z,5.15
2023-04-16T03:17:19.451Z,5.07
2023-04-16T03:19:46.218Z,5.57
2023-04-16T03:22:12.957Z,4.53
2023-04-16T03:24:39.694Z,4.88
2023-04-16T03:27:06.377Z,4.10
2023-04-16T03:29:33.066Z,3.90
2023-04-16T03:31:59.726Z,4.63
2023-04-16T03:34:26.833Z,5.38
2023-04-16T03:36:53.493Z,5.72
2023-04-16T03:39:20.555Z,5.32
2023-04-16T03:41:47.251Z,5.38
2023-04-16T03:44:13.923Z,5.50
2023-04-16T03:46:40.651Z,6.20
2023-04-16T03:49:07.955Z,5.72
2023-04-16T03:51:35.088Z,6.47
2023-04-16T03:54:01.779Z,5.88
2023-04-16T03:56:28.428Z,5.93
2023-04-16T03:58:55.114Z,5.63
2023-04-16T04:01:21.813Z,7.10
2023-04-16T04:03:48.589Z,5.95
2023-04-16T04:06:15.480Z,6.30
2023-04-16T04:08:43.241Z,6.07
2023-04-16T04:11:09.905Z,5.65
2023-04-16T04:13:36.565Z,6.47
2023-04-16T04:16:03.353Z,6.57
2023-04-16T04:18:30.120Z,6.68
2023-04-16T04:20:57.161Z,7.15
2023-04-16T04:23:24.210Z,6.43
2023-04-16T04:25:50.989Z,6.57
2023-04-16T04:28:17.666Z,5.55
2023-04-16T04:30:44.324Z,5.10
2023-04-16T04:33:11.042Z,6.13
2023-04-16T04:35:37.738Z,5.85
2023-04-16T04:38:05.244Z,5.50
2023-04-16T04:40:31.967Z,6.28
2023-04-16T04:42:58.637Z,5.55
2023-04-16T04:45:25.656Z,6.03
2023-04-16T04:47:53.159Z,6.10
2023-04-16T04:50:19.929Z,6.32
2023-04-16T04:52:46.573Z,5.55
2023-04-16T04:55:15.732Z,6.60
2023-04-16T04:57:42.687Z,6.00
2023-04-16T05:00:10.073Z,6.32
2023-04-16T05:02:36.996Z,5.22
2023-04-16T05:05:04.748Z,5.97
2023-04-16T05:07:32.208Z,5.13
2023-04-16T05:09:59.008Z,5.65
2023-04-16T05:12:25.776Z,5.65
2023-04-16T05:14:52.487Z,5.70
2023-04-16T05:17:19.123Z,6.25
2023-04-16T05:19:45.824Z,6.75
2023-04-16T05:22:12.648Z,5.93
2023-04-16T05:24:39.310Z,6.18
2023-04-16T05:27:06.484Z,6.13
2023-04-16T05:29:33.135Z,6.07
2023-04-16T05:31:59.834Z,6.22
2023-04-16T05:34:26.493Z,6.38
2023-04-16T05:36:53.134Z,7.03
2023-04-16T05:39:20.197Z,7.03
2023-04-16T05:41:46.959Z,9.30
2023-04-16T05:44:15.186Z,7.63
2023-04-16T05:46:41.879Z,7.65
2023-04-16T05:49:08.816Z,6.57
2023-04-16T05:51:35.904Z,6.55
2023-04-16T05:54:02.625Z,9.77
2023-04-16T05:56:29.354Z,9.23
2023-04-16T05:58:55.990Z,8.40
2023-04-16T06:01:22.975Z,6.70
2023-04-16T06:03:49.759Z,7.05
2023-04-16T06:06:16.545Z,6.60
2023-04-16T06:08:43.193Z,6.75
2023-04-16T06:11:09.977Z,7.70
2023-04-16T06:13:37.363Z,7.30
2023-04-16T06:16:04.257Z,7.78
2023-04-16T06:18:31.200Z,9.00
2023-04-16T06:20:59.299Z,8.25
2023-04-16T06:23:26.036Z,7.20
2023-04-16T06:25:52.766Z,7.57
2023-04-16T06:28:19.520Z,7.35
2023-04-16T06:30:47.095Z,5.53
2023-04-16T06:33:13.895Z,7.57
2023-04-16T06:35:40.853Z,6.20
2023-04-16T06:38:07.532Z,7.03
2023-04-16T06:40:34.340Z,5.88
2023-04-16T06:43:01.111Z,8.00
2023-04-16T06:45:27.759Z,9.15
2023-04-16T06:47:54.514Z,8.63
2023-04-16T06:50:22.180Z,8.38
2023-04-16T06:52:48.855Z,8.98
2023-04-16T06:55:15.522Z,7.05
2023-04-16T06:57:42.153Z,11.48
2023-04-16T07:00:09.238Z,5.78
2023-04-16T07:02:35.987Z,6.00
2023-04-16T07:05:02.875Z,6.25
2023-04-16T07:07:29.535Z,5.55
2023-04-16T07:09:56.176Z,5.72
2023-04-16T07:12:23.081Z,5.60
2023-04-16T07:14:49.932Z,4.43
2023-04-16T07:17:16.649Z,4.75
2023-04-16T07:19:43.291Z,4.43
2023-04-16T07:22:09.958Z,3.88
2023-04-16T07:24:36.633Z,2.33
2023-04-16T07:27:03.343Z,3.22
2023-04-16T07:29:30.031Z,2.45
2023-04-16T07:31:57.637Z,3.55
2023-04-16T07:34:24.385Z,3.30
2023-04-16T07:36:51.036Z,3.58
2023-04-16T07:39:17.683Z,3.67
2023-04-16T07:41:44.377Z,3.50
2023-04-16T07:44:11.119Z,3.53
2023-04-16T07:46:46.130Z,3.63
2023-04-16T07:49:13.942Z,3.63
2023-04-16T07:51:40.708Z,4.20
2023-04-16T07:54:07.359Z,3.47
2023-04-16T07:56:33.994Z,2.90
2023-04-16T07:59:07.873Z,13.40
2023-04-16T08:01:45.924Z,6.60
2023-04-16T08:04:12.685Z,3.13
2023-04-16T08:06:39.417Z,3.22
2023-04-16T08:09:06.338Z,3.38
2023-04-16T08:11:33.150Z,3.25
2023-04-16T08:13:59.814Z,2.80
2023-04-16T08:16:26.565Z,3.15
2023-04-16T08:18:53.272Z,3.60
2023-04-16T08:21:19.941Z,3.10
2023-04-16T08:23:46.615Z,2.78
2023-04-16T08:26:13.331Z,3.05
2023-04-16T08:28:39.975Z,2.70
2023-04-16T08:31:06.707Z,2.38
2023-04-16T08:33:33.446Z,1.83
2023-04-16T08:36:00.208Z,1.60
2023-04-16T08:38:27.167Z,1.98
2023-04-16T08:40:55.039Z,1.90
2023-04-16T08:43:23.758Z,2.33
2023-04-16T08:45:53.517Z,1.13
2023-04-16T08:48:22.012Z,1.77
2023-04-16T08:50:52.662Z,7.85
2023-04-16T08:53:27.380Z,20.25
2023-04-16T08:55:59.181Z,3.00
2023-04-16T08:58:31.783Z,1.58
2023-04-16T09:00:58.498Z,1.88
2023-04-16T09:03:25.310Z,1.30
2023-04-16T09:05:53.374Z,1.30
2023-04-16T09:08:21.215Z,1.10
2023-04-16T09:10:49.282Z,1.25
2023-04-16T09:13:20.273Z,2.03
2023-04-16T09:15:47.384Z,2.90
2023-04-16T09:18:14.136Z,1.58
2023-04-16T09:20:40.866Z,2.10
2023-04-16T09:23:07.511Z,2.03
2023-04-16T09:25:34.897Z,2.10
2023-04-16T09:28:01.726Z,4.10
2023-04-16T09:30:28.906Z,7.50
2023-04-16T09:33:23.285Z,2.63
2023-04-16T09:35:52.082Z,1.35
2023-04-16T09:38:19.902Z,0.75
2023-04-16T09:40:49.460Z,1.77
2023-04-16T09:43:18.580Z,1.67
2023-04-16T09:45:53.512Z,1.58
2023-04-16T09:48:31.492Z,1.55
2023-04-16T09:50:59.370Z,1.98
2023-04-16T09:53:27.859Z,1.80
2023-04-16T09:55:58.880Z,1.55
2023-04-16T09:58:26.200Z,1.65
2023-04-16T10:01:07.460Z,1.48
2023-04-16T10:03:35.656Z,1.40
2023-04-16T10:06:18.128Z,1.10
2023-04-16T10:08:53.089Z,1.50
2023-04-16T10:11:21.319Z,1.10
2023-04-16T10:13:48.482Z,1.17
2023-04-16T10:16:15.382Z,1.35
2023-04-16T10:18:43.810Z,1.30
2023-04-16T10:21:15.361Z,1.23
2023-04-16T10:23:43.807Z,0.95
2023-04-16T10:26:10.876Z,1.02
2023-04-16T10:28:37.852Z,1.50
2023-04-16T10:31:08.248Z,1.33
2023-04-16T10:33:37.229Z,2.13
2023-04-16T10:36:12.870Z,2.50
2023-04-16T10:38:50.239Z,1.77
2023-04-16T10:41:17.147Z,1.10
2023-04-16T10:43:45.403Z,1.80
2023-04-16T10:46:34.178Z,2.22
2023-04-16T10:49:02.752Z,1.60
2023-04-16T10:51:32.228Z,1.75
2023-04-16T10:54:03.674Z,1.70
2023-04-16T10:56:33.405Z,1.45
2023-04-16T10:59:00.071Z,12.35
2023-04-16T11:01:37.106Z,7.60
2023-04-16T11:04:24.075Z,41.00
2023-04-16T11:07:19.606Z,3.08
2023-04-16T11:10:06.149Z,1.55
2023-04-16T11:12:37.720Z,1.48
2023-04-16T11:15:12.448Z,1.65
2023-04-16T11:17:50.339Z,1.65
2023-04-16T11:20:25.723Z,1.30
2023-04-16T11:22:54.930Z,1.40
2023-04-16T11:25:26.294Z,1.20
2023-04-16T11:27:53.828Z,1.80
2023-04-16T11:30:36.567Z,2.88
2023-04-16T11:33:04.635Z,1.30
2023-04-16T11:35:31.495Z,0.88
2023-04-16T11:37:58.698Z,0.75
2023-04-16T11:40:29.173Z,0.80
2023-04-16T11:42:56.852Z,0.90
2023-04-16T11:45:24.336Z,0.93
2023-04-16T11:47:53.384Z,1.27
2023-04-16T11:50:22.361Z,0.95
2023-04-16T11:52:53.985Z,1.00
2023-04-16T11:55:21.297Z,0.70
2023-04-16T11:57:48.778Z,0.70
2023-04-16T12:00:15.757Z,0.95
2023-04-16T12:02:42.497Z,0.55
2023-04-16T12:05:32.564Z,0.82
2023-04-16T12:08:01.233Z,0.75
2023-04-16T12:10:28.497Z,0.50
2023-04-16T12:13:13.784Z,1.25
2023-04-16T12:15:45.884Z,0.90
2023-04-16T12:18:12.730Z,1.20
2023-04-16T12:20:43.677Z,1.02
2023-04-16T12:23:22.009Z,0.95
2023-04-16T12:25:50.011Z,1.17
2023-04-16T12:28:31.181Z,0.68
2023-04-16T12:30:58.033Z,1.08
2023-04-16T12:33:25.066Z,1.20
2023-04-16T12:35:52.519Z,1.77
2023-04-16T12:38:19.408Z,1.98
2023-04-16T12:40:46.206Z,1.70
2023-04-16T12:43:13.505Z,1.63
2023-04-16T12:45:40.923Z,1.30
2023-04-16T12:48:08.729Z,1.20
2023-04-16T12:50:35.495Z,1.45
2023-04-16T12:53:02.305Z,1.25
2023-04-16T12:55:29.016Z,1.20
2023-04-16T12:57:55.934Z,1.52
2023-04-16T13:00:22.725Z,1.48
2023-04-16T13:02:49.520Z,1.60
2023-04-16T13:05:18.954Z,1.25
2023-04-16T13:07:45.869Z,1.42
2023-04-16T13:10:12.933Z,0.88
2023-04-16T13:12:39.711Z,0.60
2023-04-16T13:15:06.853Z,0.70
2023-04-16T13:17:33.631Z,0.70
2023-04-16T13:20:00.311Z,0.43
2023-04-16T13:22:26.958Z,0.60
2023-04-16T13:24:53.644Z,0.80
2023-04-16T13:27:20.353Z,1.02
2023-04-16T13:29:47.161Z,0.50
2023-04-16T13:32:14.709Z,0.65
2023-04-16T13:34:41.479Z,0.88
2023-04-16T13:37:08.154Z,1.00
2023-04-16T13:39:34.848Z,0.70
2023-04-16T13:42:02.681Z,1.90
2023-04-16T13:44:29.517Z,1.05
2023-04-16T13:46:56.675Z,1.00
2023-04-16T13:49:23.540Z,4.50
2023-04-16T13:51:50.580Z,2.00
2023-04-16T13:54:17.290Z,2.85
2023-04-16T13:56:44.055Z,1.23
2023-04-16T13:59:11.091Z,1.38
2023-04-16T14:01:38.308Z,1.15
2023-04-16T14:04:06.767Z,1.38
2023-04-16T14:06:34.733Z,2.13
2023-04-16T14:09:01.894Z,2.88
2023-04-16T14:11:28.839Z,1.75
2023-04-16T14:13:55.966Z,1.45
2023-04-16T14:16:22.953Z,1.30
2023-04-16T14:18:51.678Z,1.20
2023-04-16T14:21:18.331Z,1.52
2023-04-16T14:23:45.296Z,1.10
2023-04-16T14:26:12.046Z,1.23
2023-04-16T14:28:40.004Z,1.17
2023-04-16T14:31:06.828Z,1.70
2023-04-16T14:33:33.890Z,1.83
2023-04-16T14:36:02.777Z,2.10
2023-04-16T14:38:30.319Z,1.50
2023-04-16T14:40:57.009Z,1.23
2023-04-16T14:43:23.745Z,1.23
2023-04-16T14:45:50.979Z,1.55
2023-04-16T14:48:17.765Z,1.50
2023-04-16T14:50:44.710Z,1.50
2023-04-16T14:53:11.948Z,1.88
2023-04-16T14:55:38.709Z,1.20
2023-04-16T14:58:05.509Z,1.38
2023-04-16T15:00:34.786Z,1.30
2023-04-16T15:03:01.651Z,1.08
2023-04-16T15:05:29.617Z,0.93
2023-04-16T15:07:56.489Z,0.90
2023-04-16T15:10:23.200Z,1.00
2023-04-16T15:12:49.816Z,0.70
2023-04-16T15:15:16.536Z,0.77
2023-04-16T15:17:43.687Z,0.88
2023-04-16T15:20:10.904Z,1.30
2023-04-16T15:22:38.165Z,1.60
2023-04-16T15:25:06.291Z,1.30
2023-04-16T15:27:32.985Z,1.65
2023-04-16T15:29:59.735Z,1.55
2023-04-16T15:32:26.535Z,1.15
2023-04-16T15:34:53.264Z,1.00
2023-04-16T15:37:19.979Z,1.08
2023-04-16T15:39:46.748Z,1.10
2023-04-16T15:42:13.432Z,0.88
2023-04-16T15:44:40.484Z,0.88
2023-04-16T15:47:08.448Z,1.13
2023-04-16T15:49:35.985Z,1.08
2023-04-16T15:52:03.087Z,1.75
2023-04-16T15:54:31.654Z,2.20
2023-04-16T15:56:58.825Z,1.63
2023-04-16T15:59:26.870Z,2.40
2023-04-16T16:01:53.813Z,2.33
2023-04-16T16:04:22.803Z,1.92
2023-04-16T16:06:51.034Z,1.77
2023-04-16T16:09:18.440Z,1.42
2023-04-16T16:11:45.065Z,1.70
2023-04-16T16:14:11.742Z,2.20
2023-04-16T16:16:39.487Z,2.35
2023-04-16T16:19:06.846Z,2.40
2023-04-16T16:21:33.750Z,2.35
2023-04-16T16:24:00.466Z,2.95
2023-04-16T16:26:27.152Z,2.22
2023-04-16T16:28:53.864Z,2.30
2023-04-16T16:31:20.816Z,3.33
2023-04-16T16:33:47.515Z,2.00
2023-04-16T16:36:14.293Z,2.38
2023-04-16T16:38:42.399Z,2.15
2023-04-16T16:41:09.092Z,2.00
2023-04-16T16:43:38.858Z,1.55
2023-04-16T16:46:07.286Z,1.88
2023-04-16T16:48:34.014Z,2.25
2023-04-16T16:51:00.656Z,1.75
2023-04-16T16:53:27.496Z,2.42
2023-04-16T16:55:54.126Z,2.40
2023-04-16T16:58:20.806Z,1.33
2023-04-16T17:00:47.570Z,2.05
2023-04-16T17:03:14.475Z,1.55
2023-04-16T17:05:41.370Z,1.30
2023-04-16T17:08:08.066Z,1.63
2023-04-16T17:10:35.822Z,2.10
2023-04-16T17:13:02.579Z,2.03
2023-04-16T17:15:29.353Z,2.10
2023-04-16T17:17:57.146Z,2.10
2023-04-16T17:20:23.985Z,2.15
2023-04-16T17:22:51.193Z,2.55
2023-04-16T17:25:18.037Z,2.35
2023-04-16T17:27:44.689Z,2.90
2023-04-16T17:30:11.695Z,2.83
2023-04-16T17:32:38.408Z,3.15
2023-04-16T17:35:06.788Z,3.47
2023-04-16T17:37:33.513Z,3.13
2023-04-16T17:40:00.352Z,3.35
2023-04-16T17:42:27.030Z,3.53
2023-04-16T17:44:56.271Z,3.65
2023-04-16T17:47:22.942Z,4.00
2023-04-16T17:49:53.376Z,3.15
2023-04-16T17:52:21.327Z,3.05
2023-04-16T17:54:48.649Z,2.83
2023-04-16T17:57:15.522Z,3.78
2023-04-16T17:59:42.679Z,4.78
2023-04-16T18:02:09.415Z,2.88
2023-04-16T18:04:36.359Z,3.30
2023-04-16T18:07:03.077Z,2.95
2023-04-16T18:09:30.573Z,3.65
2023-04-16T18:11:57.476Z,3.00
2023-04-16T18:14:24.181Z,3.40
2023-04-16T18:16:50.860Z,3.42
2023-04-16T18:19:17.516Z,4.55
2023-04-16T18:21:45.016Z,4.20
2023-04-16T18:24:12.118Z,4.15
2023-04-16T18:26:40.940Z,3.70
2023-04-16T18:29:07.988Z,3.20
2023-04-16T18:31:34.769Z,3.25
2023-04-16T18:34:01.576Z,3.75
2023-04-16T18:36:28.378Z,4.05
2023-04-16T18:39:02.220Z,3.78
2023-04-16T18:41:30.644Z,3.88
2023-04-16T18:43:57.409Z,4.38
2023-04-16T18:46:25.112Z,4.70
2023-04-16T18:48:52.092Z,4.00
2023-04-16T18:51:19.022Z,4.15
2023-04-16T18:53:45.936Z,4.65
2023-04-16T18:56:12.853Z,9.88
2023-04-16T18:58:39.610Z,5.63
2023-04-16T19:01:10.970Z,4.68
2023-04-16T19:03:38.105Z,4.82
2023-04-16T19:06:05.852Z,6.30
2023-04-16T19:08:32.648Z,7.15
2023-04-16T19:10:59.305Z,6.22
2023-04-16T19:13:26.022Z,5.70
2023-04-16T19:15:58.670Z,5.60
2023-04-16T19:18:25.457Z,4.95
2023-04-16T19:20:58.035Z,4.70
2023-04-16T19:23:24.724Z,5.35
2023-04-16T19:25:51.423Z,4.93
2023-04-16T19:28:18.476Z,5.25
2023-04-16T19:30:46.646Z,5.40
2023-04-16T19:33:13.571Z,5.03
2023-04-16T19:35:43.104Z,5.32
2023-04-16T19:38:10.942Z,5.18
2023-04-16T19:40:38.302Z,5.60
2023-04-16T19:43:05.020Z,5.18
2023-04-16T19:45:31.977Z,5.20
2023-04-16T19:47:58.946Z,4.50
2023-04-16T19:50:25.592Z,5.80
2023-04-16T19:52:52.222Z,5.43
2023-04-16T19:55:19.085Z,5.70
2023-04-16T19:57:47.971Z,5.97
2023-04-16T20:00:15.028Z,5.95
2023-04-16T20:02:41.950Z,7.13
2023-04-16T20:05:09.276Z,6.22
2023-04-16T20:07:36.076Z,5.72
2023-04-16T20:10:03.017Z,6.30
2023-04-16T20:12:29.730Z,6.50
2023-04-16T20:14:56.472Z,5.28
2023-04-16T20:17:23.169Z,5.70
2023-04-16T20:19:51.097Z,6.13
2023-04-16T20:22:18.657Z,6.03
2023-04-16T20:24:47.814Z,6.28
2023-04-16T20:27:15.329Z,6.75
2023-04-16T20:29:42.359Z,7.10
2023-04-16T20:32:09.245Z,6.75
2023-04-16T20:34:36.686Z,7.88
2023-04-16T20:37:03.966Z,6.85
2023-04-16T20:39:34.039Z,7.30
2023-04-16T20:42:04.126Z,7.30
2023-04-16T20:44:40.244Z,7.50
2023-04-16T20:47:14.815Z,8.07
2023-04-16T20:49:47.712Z,7.75
2023-04-16T20:52:15.985Z,7.43
2023-04-16T20:54:42.640Z,8.32
2023-04-16T20:57:09.310Z,6.93
2023-04-16T20:59:38.720Z,8.25
2023-04-16T21:02:05.847Z,8.05
2023-04-16T21:04:32.787Z,7.57
2023-04-16T21:07:03.081Z,7.68
2023-04-16T21:09:30.854Z,7.28
2023-04-16T21:11:57.702Z,8.10
2023-04-16T21:14:24.440Z,7.10
2023-04-16T21:16:51.192Z,8.48
2023-04-16T21:19:17.847Z,6.97
2023-04-16T21:21:44.548Z,7.45
2023-04-16T21:24:11.217Z,7.20
2023-04-16T21:26:37.870Z,7.60
2023-04-16T21:29:04.521Z,7.60
2023-04-16T21:31:31.205Z,7.13
2023-04-16T21:33:57.824Z,7.40
2023-04-16T21:36:26.512Z,7.20
2023-04-16T21:38:53.128Z,6.65
2023-04-16T21:41:19.764Z,6.55
2023-04-16T21:43:46.420Z,6.70
2023-04-16T21:46:13.152Z,6.78
2023-04-16T21:48:39.800Z,7.53
2023-04-16T21:51:06.703Z,6.47
2023-04-16T21:53:34.135Z,6.28
2023-04-16T21:56:00.873Z,6.72
2023-04-16T21:58:27.721Z,6.40
2023-04-16T22:00:54.544Z,6.68
2023-04-16T22:03:27.545Z,6.90
2023-04-16T22:06:00.604Z,5.78
2023-04-16T22:08:30.990Z,6.90
2023-04-16T22:11:02.392Z,6.80
2023-04-16T22:13:32.350Z,6.75
2023-04-16T22:16:02.648Z,5.75
2023-04-16T22:18:32.932Z,6.95
2023-04-16T22:21:00.095Z,6.93
2023-04-16T22:23:26.765Z,6.65
2023-04-16T22:25:55.922Z,6.32
2023-04-16T22:28:22.949Z,7.40
2023-04-16T22:30:49.793Z,6.22
2023-04-16T22:33:16.601Z,6.38
2023-04-16T22:35:43.342Z,6.10
2023-04-16T22:38:10.637Z,7.10
2023-04-16T22:40:37.454Z,6.75
2023-04-16T22:43:04.643Z,6.43
2023-04-16T22:45:31.368Z,6.25
2023-04-16T22:47:58.053Z,6.35
2023-04-16T22:50:24.836Z,7.05
2023-04-16T22:52:51.478Z,6.43
2023-04-16T22:55:18.219Z,5.97
2023-04-16T22:57:44.869Z,6.03
2023-04-16T23:00:16.460Z,6.47
2023-04-16T23:02:44.190Z,6.25
2023-04-16T23:05:11.626Z,6.80
2023-04-16T23:07:38.445Z,6.05
2023-04-16T23:10:05.788Z,6.68
2023-04-16T23:12:32.486Z,6.43
2023-04-16T23:15:00.481Z,5.32
2023-04-16T23:17:28.046Z,5.82
2023-04-16T23:19:54.923Z,5.88
2023-04-16T23:22:21.582Z,6.57
2023-04-16T23:24:48.238Z,7.13
2023-04-16T23:27:14.911Z,6.57
2023-04-16T23:29:41.538Z,6.07
2023-04-16T23:32:08.197Z,5.88
2023-04-16T23:34:34.837Z,6.82
2023-04-16T23:37:01.569Z,6.57
2023-04-16T23:39:28.254Z,5.60
2023-04-16T23:41:54.876Z,6.03
2023-04-16T23:44:21.511Z,5.13
2023-04-16T23:46:48.184Z,6.88
2023-04-16T23:49:14.978Z,5.32
2023-04-16T23:51:41.619Z,6.13
2023-04-16T23:54:08.321Z,6.15
2023-04-16T23:56:35.384Z,6.28
2023-04-16T23:59:02.022Z,5.68
